sensor_id;sensor_type;location;lat;lon;timestamp;temperature;humidity
69335;SHT31;56477;52.742;15.242;2023-08-20T00:00:03;23.73;81.91
69335;SHT31;56477;52.742;15.242;2023-08-20T00:02:32;23.67;82.46
69335;SHT31;56477;52.742;15.242;2023-08-20T00:04:59;23.69;82.73
69335;SHT31;56477;52.742;15.242;2023-08-20T00:07:26;23.58;82.73
69335;SHT31;56477;52.742;15.242;2023-08-20T00:09:52;23.59;82.71
69335;SHT31;56477;52.742;15.242;2023-08-20T00:12:18;23.65;82.53
69335;SHT31;56477;52.742;15.242;2023-08-20T00:14:58;23.69;82.32
69335;SHT31;56477;52.742;15.242;2023-08-20T00:17:25;23.63;82.62
69335;SHT31;56477;52.742;15.242;2023-08-20T00:19:54;23.63;82.71
69335;SHT31;56477;52.742;15.242;2023-08-20T00:22:24;23.62;82.92
69335;SHT31;56477;52.742;15.242;2023-08-20T00:24:52;23.63;82.74
69335;SHT31;56477;52.742;15.242;2023-08-20T00:27:18;23.62;82.74
69335;SHT31;56477;52.742;15.242;2023-08-20T00:29:44;23.62;82.94
69335;SHT31;56477;52.742;15.242;2023-08-20T00:32:10;23.59;82.72
69335;SHT31;56477;52.742;15.242;2023-08-20T00:34:36;23.59;82.77
69335;SHT31;56477;52.742;15.242;2023-08-20T00:37:02;23.58;83.11
69335;SHT31;56477;52.742;15.242;2023-08-20T00:39:29;23.48;83.64
69335;SHT31;56477;52.742;15.242;2023-08-20T00:41:55;23.42;83.55
69335;SHT31;56477;52.742;15.242;2023-08-20T00:44:21;23.43;83.42
69335;SHT31;56477;52.742;15.242;2023-08-20T00:46:47;23.37;83.80
69335;SHT31;56477;52.742;15.242;2023-08-20T00:49:13;23.39;83.70
69335;SHT31;56477;52.742;15.242;2023-08-20T00:51:39;23.31;84.00
69335;SHT31;56477;52.742;15.242;2023-08-20T00:54:05;23.23;84.36
69335;SHT31;56477;52.742;15.242;2023-08-20T00:56:31;23.12;84.73
69335;SHT31;56477;52.742;15.242;2023-08-20T00:58:58;23.10;84.75
69335;SHT31;56477;52.742;15.242;2023-08-20T01:01:24;23.14;84.51
69335;SHT31;56477;52.742;15.242;2023-08-20T01:03:50;23.08;84.69
69335;SHT31;56477;52.742;15.242;2023-08-20T01:06:55;23.10;84.84
69335;SHT31;56477;52.742;15.242;2023-08-20T01:12:19;23.16;84.21
69335;SHT31;56477;52.742;15.242;2023-08-20T01:14:45;23.26;83.69
69335;SHT31;56477;52.742;15.242;2023-08-20T01:17:11;23.21;84.83
69335;SHT31;56477;52.742;15.242;2023-08-20T01:19:37;23.15;85.19
69335;SHT31;56477;52.742;15.242;2023-08-20T01:22:28;23.08;84.60
69335;SHT31;56477;52.742;15.242;2023-08-20T01:30:17;23.16;84.47
69335;SHT31;56477;52.742;15.242;2023-08-20T01:32:44;23.22;83.93
69335;SHT31;56477;52.742;15.242;2023-08-20T01:35:13;23.25;84.01
69335;SHT31;56477;52.742;15.242;2023-08-20T01:37:42;23.21;84.71
69335;SHT31;56477;52.742;15.242;2023-08-20T01:40:09;23.25;83.96
69335;SHT31;56477;52.742;15.242;2023-08-20T01:42:40;23.26;84.21
69335;SHT31;56477;52.742;15.242;2023-08-20T01:45:06;23.22;84.98
69335;SHT31;56477;52.742;15.242;2023-08-20T01:47:33;23.15;85.51
69335;SHT31;56477;52.742;15.242;2023-08-20T01:49:59;23.11;85.90
69335;SHT31;56477;52.742;15.242;2023-08-20T01:52:26;23.01;86.02
69335;SHT31;56477;52.742;15.242;2023-08-20T01:54:52;23.05;86.17
69335;SHT31;56477;52.742;15.242;2023-08-20T01:57:19;22.94;86.98
69335;SHT31;56477;52.742;15.242;2023-08-20T01:59:44;22.95;86.53
69335;SHT31;56477;52.742;15.242;2023-08-20T02:02:10;22.88;86.74
69335;SHT31;56477;52.742;15.242;2023-08-20T02:04:36;22.88;86.70
69335;SHT31;56477;52.742;15.242;2023-08-20T02:07:02;22.83;86.15
69335;SHT31;56477;52.742;15.242;2023-08-20T02:09:28;22.84;86.12
69335;SHT31;56477;52.742;15.242;2023-08-20T02:11:54;22.83;87.06
69335;SHT31;56477;52.742;15.242;2023-08-20T02:14:19;22.80;86.79
69335;SHT31;56477;52.742;15.242;2023-08-20T02:16:46;22.71;86.74
69335;SHT31;56477;52.742;15.242;2023-08-20T02:19:12;22.68;87.43
69335;SHT31;56477;52.742;15.242;2023-08-20T02:21:38;22.68;87.64
69335;SHT31;56477;52.742;15.242;2023-08-20T02:24:04;22.70;87.01
69335;SHT31;56477;52.742;15.242;2023-08-20T02:26:30;22.73;86.88
69335;SHT31;56477;52.742;15.242;2023-08-20T02:28:56;22.73;86.59
69335;SHT31;56477;52.742;15.242;2023-08-20T02:31:22;22.68;86.57
69335;SHT31;56477;52.742;15.242;2023-08-20T02:33:47;22.63;87.29
69335;SHT31;56477;52.742;15.242;2023-08-20T02:36:14;22.60;87.00
69335;SHT31;56477;52.742;15.242;2023-08-20T02:38:40;22.60;87.10
69335;SHT31;56477;52.742;15.242;2023-08-20T02:41:05;22.57;87.23
69335;SHT31;56477;52.742;15.242;2023-08-20T02:43:31;22.54;87.56
69335;SHT31;56477;52.742;15.242;2023-08-20T02:45:57;22.56;87.43
69335;SHT31;56477;52.742;15.242;2023-08-20T02:48:23;22.59;87.33
69335;SHT31;56477;52.742;15.242;2023-08-20T02:50:53;22.56;87.32
69335;SHT31;56477;52.742;15.242;2023-08-20T02:53:20;22.56;87.28
69335;SHT31;56477;52.742;15.242;2023-08-20T02:55:47;22.52;87.59
69335;SHT31;56477;52.742;15.242;2023-08-20T02:58:13;22.50;87.61
69335;SHT31;56477;52.742;15.242;2023-08-20T03:00:39;22.47;87.85
69335;SHT31;56477;52.742;15.242;2023-08-20T03:03:05;22.46;87.96
69335;SHT31;56477;52.742;15.242;2023-08-20T03:05:34;22.40;88.03
69335;SHT31;56477;52.742;15.242;2023-08-20T03:08:00;22.35;88.42
69335;SHT31;56477;52.742;15.242;2023-08-20T03:10:27;22.36;88.77
69335;SHT31;56477;52.742;15.242;2023-08-20T03:12:53;22.35;88.65
69335;SHT31;56477;52.742;15.242;2023-08-20T03:15:19;22.40;88.65
69335;SHT31;56477;52.742;15.242;2023-08-20T03:17:45;22.46;88.04
69335;SHT31;56477;52.742;15.242;2023-08-20T03:20:11;22.47;87.97
69335;SHT31;56477;52.742;15.242;2023-08-20T03:22:38;22.53;87.84
69335;SHT31;56477;52.742;15.242;2023-08-20T03:25:05;22.54;88.07
69335;SHT31;56477;52.742;15.242;2023-08-20T03:27:31;22.53;87.92
69335;SHT31;56477;52.742;15.242;2023-08-20T03:29:57;22.59;87.93
69335;SHT31;56477;52.742;15.242;2023-08-20T03:32:24;22.47;88.73
69335;SHT31;56477;52.742;15.242;2023-08-20T03:34:50;22.50;88.53
69335;SHT31;56477;52.742;15.242;2023-08-20T03:37:16;22.42;88.88
69335;SHT31;56477;52.742;15.242;2023-08-20T03:39:42;22.28;89.90
69335;SHT31;56477;52.742;15.242;2023-08-20T03:42:08;22.15;90.20
69335;SHT31;56477;52.742;15.242;2023-08-20T03:44:34;22.08;90.64
69335;SHT31;56477;52.742;15.242;2023-08-20T03:46:59;22.12;90.34
69335;SHT31;56477;52.742;15.242;2023-08-20T03:49:26;22.15;90.15
69335;SHT31;56477;52.742;15.242;2023-08-20T03:51:51;22.20;89.61
69335;SHT31;56477;52.742;15.242;2023-08-20T03:54:17;22.25;89.42
69335;SHT31;56477;52.742;15.242;2023-08-20T03:56:43;22.26;89.39
69335;SHT31;56477;52.742;15.242;2023-08-20T03:59:09;22.28;89.07
69335;SHT31;56477;52.742;15.242;2023-08-20T04:01:35;22.35;89.03
69335;SHT31;56477;52.742;15.242;2023-08-20T04:04:03;22.40;88.68
69335;SHT31;56477;52.742;15.242;2023-08-20T04:06:29;22.30;88.77
69335;SHT31;56477;52.742;15.242;2023-08-20T04:08:55;22.12;89.66
69335;SHT31;56477;52.742;15.242;2023-08-20T04:11:21;21.89;91.05
69335;SHT31;56477;52.742;15.242;2023-08-20T04:13:47;21.89;90.73
69335;SHT31;56477;52.742;15.242;2023-08-20T04:16:13;21.92;90.74
69335;SHT31;56477;52.742;15.242;2023-08-20T04:18:39;22.01;90.51
69335;SHT31;56477;52.742;15.242;2023-08-20T04:21:06;22.08;90.32
69335;SHT31;56477;52.742;15.242;2023-08-20T04:23:33;22.13;89.99
69335;SHT31;56477;52.742;15.242;2023-08-20T04:25:58;22.17;90.20
69335;SHT31;56477;52.742;15.242;2023-08-20T04:28:24;22.20;90.15
69335;SHT31;56477;52.742;15.242;2023-08-20T04:30:53;22.23;89.84
69335;SHT31;56477;52.742;15.242;2023-08-20T04:33:22;22.15;90.56
69335;SHT31;56477;52.742;15.242;2023-08-20T04:35:48;22.12;90.08
69335;SHT31;56477;52.742;15.242;2023-08-20T04:38:16;22.19;89.95
69335;SHT31;56477;52.742;15.242;2023-08-20T04:40:42;22.10;90.65
69335;SHT31;56477;52.742;15.242;2023-08-20T04:43:08;22.15;90.26
69335;SHT31;56477;52.742;15.242;2023-08-20T04:45:34;22.15;89.87
69335;SHT31;56477;52.742;15.242;2023-08-20T04:48:00;22.06;89.95
69335;SHT31;56477;52.742;15.242;2023-08-20T04:50:25;22.04;90.16
69335;SHT31;56477;52.742;15.242;2023-08-20T04:52:51;22.05;90.32
69335;SHT31;56477;52.742;15.242;2023-08-20T04:55:17;22.05;90.02
69335;SHT31;56477;52.742;15.242;2023-08-20T04:57:43;21.96;90.58
69335;SHT31;56477;52.742;15.242;2023-08-20T05:00:09;21.99;90.43
69335;SHT31;56477;52.742;15.242;2023-08-20T05:02:35;21.95;90.69
69335;SHT31;56477;52.742;15.242;2023-08-20T05:05:02;22.02;90.63
69335;SHT31;56477;52.742;15.242;2023-08-20T05:07:28;21.96;90.91
69335;SHT31;56477;52.742;15.242;2023-08-20T05:09:54;22.05;90.74
69335;SHT31;56477;52.742;15.242;2023-08-20T05:12:20;22.05;90.59
69335;SHT31;56477;52.742;15.242;2023-08-20T05:14:46;22.04;90.74
69335;SHT31;56477;52.742;15.242;2023-08-20T05:17:12;22.08;90.76
69335;SHT31;56477;52.742;15.242;2023-08-20T05:19:38;22.09;90.72
69335;SHT31;56477;52.742;15.242;2023-08-20T05:22:03;22.06;90.85
69335;SHT31;56477;52.742;15.242;2023-08-20T05:24:30;22.04;90.85
69335;SHT31;56477;52.742;15.242;2023-08-20T05:27:14;21.89;91.67
69335;SHT31;56477;52.742;15.242;2023-08-20T05:29:40;21.89;91.82
69335;SHT31;56477;52.742;15.242;2023-08-20T05:32:07;21.92;91.24
69335;SHT31;56477;52.742;15.242;2023-08-20T05:34:33;21.92;91.02
69335;SHT31;56477;52.742;15.242;2023-08-20T05:36:59;21.78;91.31
69335;SHT31;56477;52.742;15.242;2023-08-20T05:39:26;21.74;91.44
69335;SHT31;56477;52.742;15.242;2023-08-20T05:41:54;21.69;91.61
69335;SHT31;56477;52.742;15.242;2023-08-20T05:44:21;21.55;92.23
69335;SHT31;56477;52.742;15.242;2023-08-20T05:46:47;21.58;92.37
69335;SHT31;56477;52.742;15.242;2023-08-20T05:49:14;21.57;92.64
69335;SHT31;56477;52.742;15.242;2023-08-20T05:51:42;21.64;92.66
69335;SHT31;56477;52.742;15.242;2023-08-20T05:54:08;21.79;92.16
69335;SHT31;56477;52.742;15.242;2023-08-20T05:56:34;21.94;91.23
69335;SHT31;56477;52.742;15.242;2023-08-20T05:59:00;22.06;91.09
69335;SHT31;56477;52.742;15.242;2023-08-20T06:01:26;22.22;90.17
69335;SHT31;56477;52.742;15.242;2023-08-20T06:03:52;22.29;89.26
69335;SHT31;56477;52.742;15.242;2023-08-20T06:06:18;22.42;89.17
69335;SHT31;56477;52.742;15.242;2023-08-20T06:08:44;22.47;88.78
69335;SHT31;56477;52.742;15.242;2023-08-20T06:11:09;22.56;88.74
69335;SHT31;56477;52.742;15.242;2023-08-20T06:13:35;22.64;88.65
69335;SHT31;56477;52.742;15.242;2023-08-20T06:16:01;22.68;88.20
69335;SHT31;56477;52.742;15.242;2023-08-20T06:18:28;22.77;88.31
69335;SHT31;56477;52.742;15.242;2023-08-20T06:20:54;22.78;88.15
69335;SHT31;56477;52.742;15.242;2023-08-20T06:23:20;22.91;87.80
69335;SHT31;56477;52.742;15.242;2023-08-20T06:25:46;23.14;87.32
69335;SHT31;56477;52.742;15.242;2023-08-20T06:28:12;23.26;87.23
69335;SHT31;56477;52.742;15.242;2023-08-20T06:30:38;23.41;86.63
69335;SHT31;56477;52.742;15.242;2023-08-20T06:33:04;23.53;86.37
69335;SHT31;56477;52.742;15.242;2023-08-20T06:35:30;23.77;85.65
69335;SHT31;56477;52.742;15.242;2023-08-20T06:37:56;24.16;84.50
69335;SHT31;56477;52.742;15.242;2023-08-20T06:40:21;24.47;83.05
69335;SHT31;56477;52.742;15.242;2023-08-20T06:42:47;24.96;80.94
69335;SHT31;56477;52.742;15.242;2023-08-20T06:45:13;26.29;77.98
69335;SHT31;56477;52.742;15.242;2023-08-20T06:47:39;27.12;75.20
69335;SHT31;56477;52.742;15.242;2023-08-20T06:50:05;27.32;74.27
69335;SHT31;56477;52.742;15.242;2023-08-20T06:52:32;28.31;71.67
69335;SHT31;56477;52.742;15.242;2023-08-20T06:54:57;27.55;72.56
69335;SHT31;56477;52.742;15.242;2023-08-20T06:57:24;28.35;70.45
69335;SHT31;56477;52.742;15.242;2023-08-20T06:59:49;27.83;72.27
69335;SHT31;56477;52.742;15.242;2023-08-20T07:02:16;28.51;70.95
69335;SHT31;56477;52.742;15.242;2023-08-20T07:04:41;29.16;68.51
69335;SHT31;56477;52.742;15.242;2023-08-20T07:07:07;29.34;68.14
69335;SHT31;56477;52.742;15.242;2023-08-20T07:09:34;29.91;68.27
69335;SHT31;56477;52.742;15.242;2023-08-20T07:12:02;30.26;67.13
69335;SHT31;56477;52.742;15.242;2023-08-20T07:14:28;30.43;66.20
69335;SHT31;56477;52.742;15.242;2023-08-20T07:16:54;30.36;65.61
69335;SHT31;56477;52.742;15.242;2023-08-20T07:19:20;30.20;66.36
69335;SHT31;56477;52.742;15.242;2023-08-20T07:21:46;29.47;68.16
69335;SHT31;56477;52.742;15.242;2023-08-20T07:24:12;29.78;68.77
69335;SHT31;56477;52.742;15.242;2023-08-20T07:26:38;29.78;67.68
69335;SHT31;56477;52.742;15.242;2023-08-20T07:29:04;29.80;68.56
69335;SHT31;56477;52.742;15.242;2023-08-20T07:31:32;30.33;66.97
69335;SHT31;56477;52.742;15.242;2023-08-20T07:34:00;30.36;66.05
69335;SHT31;56477;52.742;15.242;2023-08-20T07:36:26;30.23;66.85
69335;SHT31;56477;52.742;15.242;2023-08-20T07:38:53;30.94;64.82
69335;SHT31;56477;52.742;15.242;2023-08-20T07:41:20;31.53;63.80
69335;SHT31;56477;52.742;15.242;2023-08-20T07:43:46;31.36;63.47
69335;SHT31;56477;52.742;15.242;2023-08-20T07:46:13;30.90;64.90
69335;SHT31;56477;52.742;15.242;2023-08-20T07:48:39;31.58;62.90
69335;SHT31;56477;52.742;15.242;2023-08-20T07:51:05;31.36;63.20
69335;SHT31;56477;52.742;15.242;2023-08-20T07:53:32;31.25;63.83
69335;SHT31;56477;52.742;15.242;2023-08-20T07:55:59;31.82;62.44
69335;SHT31;56477;52.742;15.242;2023-08-20T07:58:25;31.53;62.96
69335;SHT31;56477;52.742;15.242;2023-08-20T08:00:51;31.72;63.37
69335;SHT31;56477;52.742;15.242;2023-08-20T08:03:17;32.20;61.49
69335;SHT31;56477;52.742;15.242;2023-08-20T08:05:47;32.72;60.11
69335;SHT31;56477;52.742;15.242;2023-08-20T08:08:14;31.48;62.25
69335;SHT31;56477;52.742;15.242;2023-08-20T08:10:41;31.27;63.19
69335;SHT31;56477;52.742;15.242;2023-08-20T08:13:17;31.18;63.52
69335;SHT31;56477;52.742;15.242;2023-08-20T08:15:44;31.75;62.19
69335;SHT31;56477;52.742;15.242;2023-08-20T08:18:09;32.00;60.40
69335;SHT31;56477;52.742;15.242;2023-08-20T08:20:36;31.53;61.71
69335;SHT31;56477;52.742;15.242;2023-08-20T08:23:01;31.79;61.66
69335;SHT31;56477;52.742;15.242;2023-08-20T08:25:28;32.89;58.12
69335;SHT31;56477;52.742;15.242;2023-08-20T08:27:54;32.12;59.58
69335;SHT31;56477;52.742;15.242;2023-08-20T08:30:20;32.17;59.55
69335;SHT31;56477;52.742;15.242;2023-08-20T08:32:46;32.06;60.14
69335;SHT31;56477;52.742;15.242;2023-08-20T08:35:12;32.82;58.23
69335;SHT31;56477;52.742;15.242;2023-08-20T08:37:37;33.54;56.29
69335;SHT31;56477;52.742;15.242;2023-08-20T08:40:04;34.65;53.97
69335;SHT31;56477;52.742;15.242;2023-08-20T08:42:32;35.11;53.63
69335;SHT31;56477;52.742;15.242;2023-08-20T08:45:02;35.40;51.87
69335;SHT31;56477;52.742;15.242;2023-08-20T08:47:29;34.18;54.49
69335;SHT31;56477;52.742;15.242;2023-08-20T08:49:56;33.91;55.99
69335;SHT31;56477;52.742;15.242;2023-08-20T08:52:22;34.48;54.23
69335;SHT31;56477;52.742;15.242;2023-08-20T08:54:49;34.79;53.26
69335;SHT31;56477;52.742;15.242;2023-08-20T08:57:15;35.17;52.59
69335;SHT31;56477;52.742;15.242;2023-08-20T08:59:42;35.34;52.72
69335;SHT31;56477;52.742;15.242;2023-08-20T09:02:09;35.51;51.45
69335;SHT31;56477;52.742;15.242;2023-08-20T09:04:39;35.06;52.84
69335;SHT31;56477;52.742;15.242;2023-08-20T09:07:11;35.18;52.04
69335;SHT31;56477;52.742;15.242;2023-08-20T09:09:41;35.66;51.78
69335;SHT31;56477;52.742;15.242;2023-08-20T09:12:18;35.68;51.08
69335;SHT31;56477;52.742;15.242;2023-08-20T09:14:49;35.35;51.93
69335;SHT31;56477;52.742;15.242;2023-08-20T09:17:16;35.31;51.74
69335;SHT31;56477;52.742;15.242;2023-08-20T09:19:43;35.30;52.02
69335;SHT31;56477;52.742;15.242;2023-08-20T09:22:13;35.15;53.45
69335;SHT31;56477;52.742;15.242;2023-08-20T09:24:49;35.21;53.72
69335;SHT31;56477;52.742;15.242;2023-08-20T09:27:17;34.94;54.07
69335;SHT31;56477;52.742;15.242;2023-08-20T09:32:17;34.19;55.43
69335;SHT31;56477;52.742;15.242;2023-08-20T09:34:43;33.80;56.60
69335;SHT31;56477;52.742;15.242;2023-08-20T09:37:10;33.57;57.43
69335;SHT31;56477;52.742;15.242;2023-08-20T09:39:36;33.98;56.10
69335;SHT31;56477;52.742;15.242;2023-08-20T09:42:04;33.82;57.62
69335;SHT31;56477;52.742;15.242;2023-08-20T09:44:35;33.76;57.13
69335;SHT31;56477;52.742;15.242;2023-08-20T09:47:11;33.76;57.43
69335;SHT31;56477;52.742;15.242;2023-08-20T09:49:39;33.29;60.24
69335;SHT31;56477;52.742;15.242;2023-08-20T09:52:07;33.53;58.01
69335;SHT31;56477;52.742;15.242;2023-08-20T09:57:37;33.20;60.34
69335;SHT31;56477;52.742;15.242;2023-08-20T10:00:05;33.00;60.99
69335;SHT31;56477;52.742;15.242;2023-08-20T10:02:32;32.85;61.16
69335;SHT31;56477;52.742;15.242;2023-08-20T10:04:59;32.27;59.42
69335;SHT31;56477;52.742;15.242;2023-08-20T10:07:29;32.00;59.96
69335;SHT31;56477;52.742;15.242;2023-08-20T10:10:01;32.27;60.33
69335;SHT31;56477;52.742;15.242;2023-08-20T10:12:27;31.76;61.28
69335;SHT31;56477;52.742;15.242;2023-08-20T10:14:55;31.83;60.64
69335;SHT31;56477;52.742;15.242;2023-08-20T10:17:22;32.25;60.98
69335;SHT31;56477;52.742;15.242;2023-08-20T10:19:48;31.94;60.04
69335;SHT31;56477;52.742;15.242;2023-08-20T10:22:14;32.37;59.66
69335;SHT31;56477;52.742;15.242;2023-08-20T10:24:44;32.10;58.29
69335;SHT31;56477;52.742;15.242;2023-08-20T10:27:12;32.48;59.46
69335;SHT31;56477;52.742;15.242;2023-08-20T10:29:40;32.64;59.53
69335;SHT31;56477;52.742;15.242;2023-08-20T10:32:10;32.92;59.26
69335;SHT31;56477;52.742;15.242;2023-08-20T10:34:38;33.81;57.69
69335;SHT31;56477;52.742;15.242;2023-08-20T10:37:12;33.90;56.99
69335;SHT31;56477;52.742;15.242;2023-08-20T10:39:38;33.88;57.00
69335;SHT31;56477;52.742;15.242;2023-08-20T10:42:09;33.77;56.84
69335;SHT31;56477;52.742;15.242;2023-08-20T10:44:57;33.88;55.78
69335;SHT31;56477;52.742;15.242;2023-08-20T10:47:25;34.01;54.83
69335;SHT31;56477;52.742;15.242;2023-08-20T10:49:54;33.73;55.80
69335;SHT31;56477;52.742;15.242;2023-08-20T10:52:23;34.11;54.05
69335;SHT31;56477;52.742;15.242;2023-08-20T10:54:53;34.18;54.10
69335;SHT31;56477;52.742;15.242;2023-08-20T10:57:21;33.82;56.34
69335;SHT31;56477;52.742;15.242;2023-08-20T10:59:57;33.81;57.97
69335;SHT31;56477;52.742;15.242;2023-08-20T11:02:27;33.95;55.62
69335;SHT31;56477;52.742;15.242;2023-08-20T11:04:53;34.09;55.65
69335;SHT31;56477;52.742;15.242;2023-08-20T11:07:20;34.14;54.76
69335;SHT31;56477;52.742;15.242;2023-08-20T11:09:47;33.03;54.00
69335;SHT31;56477;52.742;15.242;2023-08-20T11:12:15;32.40;55.09
69335;SHT31;56477;52.742;15.242;2023-08-20T11:14:41;32.72;55.40
69335;SHT31;56477;52.742;15.242;2023-08-20T11:17:07;32.25;57.93
69335;SHT31;56477;52.742;15.242;2023-08-20T11:19:36;31.94;58.38
69335;SHT31;56477;52.742;15.242;2023-08-20T11:22:03;32.30;58.46
69335;SHT31;56477;52.742;15.242;2023-08-20T11:24:29;32.27;59.28
69335;SHT31;56477;52.742;15.242;2023-08-20T11:26:55;32.28;59.53
69335;SHT31;56477;52.742;15.242;2023-08-20T11:29:21;32.54;59.82
69335;SHT31;56477;52.742;15.242;2023-08-20T11:31:48;32.65;58.66
69335;SHT31;56477;52.742;15.242;2023-08-20T11:34:14;32.76;58.32
69335;SHT31;56477;52.742;15.242;2023-08-20T11:36:40;33.13;59.92
69335;SHT31;56477;52.742;15.242;2023-08-20T11:39:07;33.12;59.81
69335;SHT31;56477;52.742;15.242;2023-08-20T11:41:36;32.74;60.82
69335;SHT31;56477;52.742;15.242;2023-08-20T11:44:02;32.52;60.78
69335;SHT31;56477;52.742;15.242;2023-08-20T11:46:29;32.04;60.49
69335;SHT31;56477;52.742;15.242;2023-08-20T11:49:03;31.69;61.11
69335;SHT31;56477;52.742;15.242;2023-08-20T11:51:30;31.42;61.32
69335;SHT31;56477;52.742;15.242;2023-08-20T11:53:57;32.06;60.66
69335;SHT31;56477;52.742;15.242;2023-08-20T11:56:23;32.43;60.98
69335;SHT31;56477;52.742;15.242;2023-08-20T11:58:52;32.71;60.90
69335;SHT31;56477;52.742;15.242;2023-08-20T12:01:18;32.96;60.31
69335;SHT31;56477;52.742;15.242;2023-08-20T12:03:45;32.60;62.17
69335;SHT31;56477;52.742;15.242;2023-08-20T12:06:18;33.00;61.06
69335;SHT31;56477;52.742;15.242;2023-08-20T12:08:45;32.76;61.49
69335;SHT31;56477;52.742;15.242;2023-08-20T12:11:11;32.60;61.82
69335;SHT31;56477;52.742;15.242;2023-08-20T12:13:37;31.97;62.77
69335;SHT31;56477;52.742;15.242;2023-08-20T12:16:03;32.35;61.39
69335;SHT31;56477;52.742;15.242;2023-08-20T12:18:28;32.30;61.02
69335;SHT31;56477;52.742;15.242;2023-08-20T12:20:55;33.16;59.77
69335;SHT31;56477;52.742;15.242;2023-08-20T12:23:21;33.08;58.66
69335;SHT31;56477;52.742;15.242;2023-08-20T12:25:51;33.43;57.42
69335;SHT31;56477;52.742;15.242;2023-08-20T12:28:17;33.61;56.86
69335;SHT31;56477;52.742;15.242;2023-08-20T12:30:43;33.63;57.15
69335;SHT31;56477;52.742;15.242;2023-08-20T12:33:11;33.64;58.12
69335;SHT31;56477;52.742;15.242;2023-08-20T12:35:37;33.47;58.42
69335;SHT31;56477;52.742;15.242;2023-08-20T12:38:03;33.58;57.84
69335;SHT31;56477;52.742;15.242;2023-08-20T12:40:30;33.42;58.19
69335;SHT31;56477;52.742;15.242;2023-08-20T12:42:56;33.78;56.30
69335;SHT31;56477;52.742;15.242;2023-08-20T12:45:22;33.54;55.40
69335;SHT31;56477;52.742;15.242;2023-08-20T12:47:48;33.68;55.32
69335;SHT31;56477;52.742;15.242;2023-08-20T12:50:14;33.73;54.06
69335;SHT31;56477;52.742;15.242;2023-08-20T12:52:40;33.23;53.52
69335;SHT31;56477;52.742;15.242;2023-08-20T12:55:07;33.94;53.77
69335;SHT31;56477;52.742;15.242;2023-08-20T12:57:34;33.94;54.31
69335;SHT31;56477;52.742;15.242;2023-08-20T13:00:01;34.16;52.86
69335;SHT31;56477;52.742;15.242;2023-08-20T13:02:27;34.39;52.41
69335;SHT31;56477;52.742;15.242;2023-08-20T13:04:53;33.00;55.13
69335;SHT31;56477;52.742;15.242;2023-08-20T13:07:19;33.19;56.01
69335;SHT31;56477;52.742;15.242;2023-08-20T13:09:45;32.92;56.47
69335;SHT31;56477;52.742;15.242;2023-08-20T13:12:11;32.24;58.45
69335;SHT31;56477;52.742;15.242;2023-08-20T13:14:39;33.09;58.59
69335;SHT31;56477;52.742;15.242;2023-08-20T13:17:06;33.54;57.19
69335;SHT31;56477;52.742;15.242;2023-08-20T13:19:33;34.12;56.05
69335;SHT31;56477;52.742;15.242;2023-08-20T13:21:59;34.45;55.07
69335;SHT31;56477;52.742;15.242;2023-08-20T13:24:25;34.29;54.57
69335;SHT31;56477;52.742;15.242;2023-08-20T13:26:51;33.61;55.50
69335;SHT31;56477;52.742;15.242;2023-08-20T13:29:17;33.73;56.79
69335;SHT31;56477;52.742;15.242;2023-08-20T13:31:43;34.04;55.66
69335;SHT31;56477;52.742;15.242;2023-08-20T13:34:09;34.48;53.90
69335;SHT31;56477;52.742;15.242;2023-08-20T13:36:35;35.00;53.54
69335;SHT31;56477;52.742;15.242;2023-08-20T13:39:01;34.82;53.31
69335;SHT31;56477;52.742;15.242;2023-08-20T13:41:27;35.23;52.20
69335;SHT31;56477;52.742;15.242;2023-08-20T13:43:53;35.21;52.70
69335;SHT31;56477;52.742;15.242;2023-08-20T13:46:19;35.10;52.54
69335;SHT31;56477;52.742;15.242;2023-08-20T13:48:45;34.19;54.15
69335;SHT31;56477;52.742;15.242;2023-08-20T13:51:10;34.42;54.17
69335;SHT31;56477;52.742;15.242;2023-08-20T13:53:36;34.79;54.85
69335;SHT31;56477;52.742;15.242;2023-08-20T13:56:02;34.72;52.40
69335;SHT31;56477;52.742;15.242;2023-08-20T13:58:29;34.59;53.50
69335;SHT31;56477;52.742;15.242;2023-08-20T14:00:54;34.79;51.90
69335;SHT31;56477;52.742;15.242;2023-08-20T14:03:20;34.62;52.65
69335;SHT31;56477;52.742;15.242;2023-08-20T14:05:46;34.74;53.41
69335;SHT31;56477;52.742;15.242;2023-08-20T14:08:13;34.70;53.34
69335;SHT31;56477;52.742;15.242;2023-08-20T14:10:39;34.74;53.97
69335;SHT31;56477;52.742;15.242;2023-08-20T14:13:05;34.60;53.49
69335;SHT31;56477;52.742;15.242;2023-08-20T14:15:31;34.69;52.78
69335;SHT31;56477;52.742;15.242;2023-08-20T14:17:57;34.73;52.44
69335;SHT31;56477;52.742;15.242;2023-08-20T14:20:23;34.07;52.50
69335;SHT31;56477;52.742;15.242;2023-08-20T14:22:49;32.58;54.96
69335;SHT31;56477;52.742;15.242;2023-08-20T14:25:14;32.40;56.77
69335;SHT31;56477;52.742;15.242;2023-08-20T14:27:41;33.05;56.22
69335;SHT31;56477;52.742;15.242;2023-08-20T14:30:07;33.50;55.68
69335;SHT31;56477;52.742;15.242;2023-08-20T14:32:33;33.80;54.73
69335;SHT31;56477;52.742;15.242;2023-08-20T14:34:59;34.05;54.70
69335;SHT31;56477;52.742;15.242;2023-08-20T14:37:25;34.45;54.11
69335;SHT31;56477;52.742;15.242;2023-08-20T14:39:51;33.97;53.72
69335;SHT31;56477;52.742;15.242;2023-08-20T14:42:17;34.11;53.64
69335;SHT31;56477;52.742;15.242;2023-08-20T14:44:43;34.01;52.63
69335;SHT31;56477;52.742;15.242;2023-08-20T14:47:10;33.84;53.26
69335;SHT31;56477;52.742;15.242;2023-08-20T14:49:36;33.74;53.94
69335;SHT31;56477;52.742;15.242;2023-08-20T14:52:02;34.19;53.33
69335;SHT31;56477;52.742;15.242;2023-08-20T14:54:29;34.60;51.74
69335;SHT31;56477;52.742;15.242;2023-08-20T14:56:56;34.49;51.90
69335;SHT31;56477;52.742;15.242;2023-08-20T14:59:21;34.69;50.41
69335;SHT31;56477;52.742;15.242;2023-08-20T15:01:47;34.46;51.47
69335;SHT31;56477;52.742;15.242;2023-08-20T15:04:13;34.32;50.76
69335;SHT31;56477;52.742;15.242;2023-08-20T15:06:39;33.67;52.12
69335;SHT31;56477;52.742;15.242;2023-08-20T15:09:05;33.36;52.28
69335;SHT31;56477;52.742;15.242;2023-08-20T15:11:33;32.81;53.46
69335;SHT31;56477;52.742;15.242;2023-08-20T15:13:59;32.45;53.94
69335;SHT31;56477;52.742;15.242;2023-08-20T15:16:25;32.38;54.75
69335;SHT31;56477;52.742;15.242;2023-08-20T15:18:51;32.38;54.44
69335;SHT31;56477;52.742;15.242;2023-08-20T15:21:17;31.93;54.73
69335;SHT31;56477;52.742;15.242;2023-08-20T15:23:43;31.93;55.21
69335;SHT31;56477;52.742;15.242;2023-08-20T15:26:09;31.73;56.52